Castro Valley, CA (94552)

2:06 PM PDT on August 29, 2015 (GMT -0700)
Palomares Hills 2 | | Change Station
CLOSE
Current Station
Personal Weather Station
Location: Castro Valley, CA
Elevation: 814 ft
Nearby Weather Stations

Elev 814 ft 37.71 °N, 122.02 °W | Updated 23 minutes ago

Mostly Cloudy
Mostly Cloudy
68.9 °F
Feels Like 68.9 °F
N
2.7
Wind Variable Wind from North

Today
High -- | Low -- °F
--% Chance of Precip.
Yesterday
High -- | Low -- °F
Precip. -- in
6:35 AM 7:41 PM
Full, 100% visible
Pressure 30.03 in
Visibility 10.0 miles
Clouds Scattered Clouds 2400 ft
Scattered Clouds 3000 ft
Dew Point 66 °F
Humidity 90%
Rainfall 0.02 in
Snow Depth Not available.
UV 8 out of 12
Pollen 6.20 out of 12
Air Quality Not available.
Flu Activity Not available.
METAR KHWD 292054Z 32010KT 10SM SCT024 SCT030 23/16 A3000 RMK AO2 SLP168 T02330161 58003
Pressure 30.03 in
Visibility 10.0 miles
Clouds Scattered Clouds 2400 ft
Scattered Clouds 3000 ft
Dew Point 66 °F
Humidity 90%
Rainfall 0.02 in
Snow Depth Not available.
UV 8 out of 12
Pollen 6.20 out of 12
Air Quality Not available.
Flu Activity Not available.
METAR KHWD 292054Z 32010KT 10SM SCT024 SCT030 23/16 A3000 RMK AO2 SLP168 T02330161 58003

10-Day Weather Forecast

×

Almanac

Astronomy

Aug. 29, 2015 Rise Set
Actual Time
Civil Twilight
Nautical Twilight
Astronomical Twilight
Moon
Length of Visible Light
Length of Day
Tomorrow will be .
, % of the Moon is Illuminated

Today's Extremes

State Highs State Lows

Community

WunderPhotos

Upload Photos

1,850,800 photos uploaded!

WunderBlogs® & News

Nearby

Air Quality

  Air Quality AQ Index Pollutant
Not available.

Snow Depth

Station Depth Elevation

Earthquake Activity

City Distance Mag. Time & Date
Minimum magnitude displayed is 2.5.

Coastal Water Temperatures

Place Temperature

Stations

Nearby Weather Stations

Station Location Temp. Windchill Dew Point Humidity Wind Precip. Elev Updated Type